Terminal Aerodrome Forecast
Issued by NWS Tulsa, OK

Current Version | Previous Version | Text Only | Print | Product List | Glossary On
Versions: 1 2 3 4 5 6 7 8 9 10 11 12 13 14 15
699
FTUS44 KTSA 230203 AAA
TAFFSM
TAF AMD
KFSM 230203Z 2302/2324 04006KT P6SM SCT040 BKN120
      TEMPO 2303/2306 2SM TSRA BKN030CB
     FM230800 04008KT P6SM OVC040
     FM231200 06005KT P6SM BKN025
     FM231800 06007KT P6SM SCT250=

USA.gov is the U.S. government's official web portal to all federal, state and local government web resources and services.